Weather observations for the past three days for
Pinal Airpark
Metric (Imperial)
Date Time (mst) Wind (kph) Vis. (km) Weather Sky Cond. Temperature (ºC) Relative Humidity Wind Chill (°C) Heat Index (°C) Pressure Precipitation (cm)
Air Dwpt 6 hour altimeter (cm) sea level (mb) 1 hr 3 hr 6 hr
Max. Min.
07 14:55 Calm 3.22 Light Rain Haze CLR 32 -5 9% 30 75.82 0.0
07 14:35 Vrbl 9 G 20 8.05 Light Rain Haze CLR 33 -4 9% 31 75.84 0.0
07 14:15 W 17 4.02 Light Rain Haze CLR 32 -4 9% 30 75.87 0.0
07 13:55 Vrbl 9 G 19 9.66 Fair with Haze CLR 32 -5 9% 30 75.9 0.0
07 13:35 Vrbl 7 14.48 Fair CLR 32 -4 9% 30 75.92 0.0
07 13:15 NW 13 16.09 Fair CLR 32 -5 9% 30 75.92 0.0
07 12:55 Calm 16.09 Fair CLR 31 -4 10% 29 75.95 0.0
07 12:35 N 13 16.09 Fair CLR 31 -3 11% 29 75.97 0.0
07 12:15 W 11 16.09 Fair CLR 30 -3 11% 28 76 0.0
07 11:55 Vrbl 9 16.09 Fair CLR 30 -2 12% 28 76.02 0.0
07 11:35 Calm 16.09 Fair CLR 29 0 15% 27 76.05 0.0
07 11:15 Calm 16.09 Fair CLR 28 0 16% 27 76.07 0.0
07 10:55 Calm 16.09 Fair CLR 27 0 17% 26 76.1 0.0
07 10:35 Calm 16.09 Fair CLR 26 0 18% 25 76.1 0.0
07 10:15 Calm 16.09 Fair CLR 25 0 19% 25 76.1 0.0
07 09:55 Calm 16.09 Fair CLR 25 0 19% 25 76.12 0.0
07 09:35 S 7 16.09 Fair CLR 24 0 21% 25 76.12 0.0
07 09:15 S 9 16.09 Fair CLR 23 1 23% 76.12 0.0
07 08:55 SE 7 16.09 Fair CLR 22 2 27% 76.15 0.0
07 08:35 Vrbl 7 16.09 Fair CLR 21 3 31% 76.15 0.0
07 08:15 SE 9 16.09 Fair CLR 20 3 33% 76.15 0.0
07 07:55 SE 9 16.09 Fair CLR 19 3 35% 76.17 0.0
07 07:35 SE 11 16.09 Fair CLR 18 4 40% 76.17 0.0
07 07:15 SE 9 16.09 Fair CLR 16 4 45% 76.17 0.0
07 06:55 S 7 16.09 Fair CLR 14 3 48% 76.17 0.0
07 06:35 S 6 16.09 Fair CLR 13 3 51% 76.15 0.0
07 06:15 Calm 16.09 Fair CLR 13 3 51% 76.15 0.0
07 05:55 SE 6 16.09 Fair CLR 13 3 51% 76.12 0.0
07 05:35 SE 13 11.27 Fair CLR 12 3 54% 76.12 0.0
07 05:15 SE 9 16.09 Fair CLR 13 3 51% 76.12 0.0
07 04:55 SE 9 16.09 Partly Cloudy FEW041 SCT050 13 3 51% 76.12 0.0
07 04:35 E 7 16.09 A Few Clouds FEW044 13 3 51% 76.12 0.0
07 04:15 E 6 16.09 Partly Cloudy FEW044 SCT050 12 3 54% 76.12 0.0
07 03:55 Calm 16.09 Mostly Cloudy SCT044 BKN050 12 2 51% 76.12 0.0
07 03:35 Calm 16.09 Mostly Cloudy FEW035 BKN042 BKN047 12 1 47% 76.12 0.0
07 03:15 W 6 16.09 Mostly Cloudy SCT030 BKN038 BKN045 12 1 47% 76.15 0.0
07 02:55 Calm 16.09 Mostly Cloudy BKN032 BKN043 13 0 41% 76.15 0.0
07 02:35 Calm 16.09 Mostly Cloudy SCT034 BKN043 13 1 44% 76.15 0.0
07 02:15 Calm 16.09 Partly Cloudy FEW034 SCT040 13 1 44% 76.15 0.0
07 01:55 Calm 16.09 Partly Cloudy FEW033 SCT041 15 1 39% 76.15 0.0
07 01:35 Calm 16.09 Partly Cloudy SCT037 SCT043 13 0 41% 76.15 0.0
07 01:15 Calm 16.09 Partly Cloudy FEW035 SCT044 13 0 41% 76.17 0.0
07 00:55 Calm 16.09 Partly Cloudy FEW030 SCT037 SCT046 14 0 39% 76.17 0.0
07 00:35 Calm 16.09 Mostly Cloudy SCT036 BKN043 14 0 39% 76.17 0.0
07 00:15 Calm 16.09 Partly Cloudy FEW031 SCT041 15 0 36% 76.17 0.0
06 23:55 Calm 16.09 A Few Clouds FEW030 FEW042 15 0 36% 76.17 0.0
06 23:35 Calm 16.09 A Few Clouds FEW040 15 -1 34% 76.17 0.0
06 23:15 Calm 16.09 A Few Clouds FEW042 16 0 34% 76.17 0.0
06 22:55 Calm 16.09 Fair CLR 18 -1 28% 76.17 0.0
06 22:35 Calm 16.09 A Few Clouds FEW040 FEW049 18 -1 28% 76.17 0.0
06 22:15 Calm 16.09 Fair CLR 19 -1 26% 76.17 0.0
06 21:55 Calm 16.09 Fair CLR 19 -2 24% 76.15 0.0
06 21:35 NW 7 16.09 A Few Clouds FEW046 20 -2 23% 76.15 0.0
06 21:15 Calm 16.09 A Few Clouds FEW045 19 -1 26% 76.15 0.0
06 20:55 W 7 16.09 A Few Clouds FEW046 20 -1 24% 76.12 0.0
06 20:35 W 9 16.09 A Few Clouds FEW031 FEW041 21 -2 21% 76.1 0.0
06 20:15 W 6 12.87 Partly Cloudy FEW021 SCT033 SCT040 22 -2 20% 76.1 0.0
06 19:55 NW 11 16.09 Fair CLR 22 -3 19% 76.07 0.0
06 19:35 NW 9 16.09 Fair CLR 23 -2 19% 76.07 0.0
06 19:15 NW 7 16.09 Fair CLR 24 -3 16% 24 76.05 0.0
06 18:55 W 9 16.09 Fair CLR 25 -4 14% 25 76.05 0.0
06 18:35 W 9 16.09 Fair CLR 26 -5 12% 25 76.05 0.0
06 18:15 W 13 16.09 Fair CLR 26 -5 12% 25 76.05 0.0
06 17:55 W 11 16.09 Fair CLR 26 -4 13% 25 76.05 0.0
06 17:35 Vrbl 11 16.09 Fair CLR 27 -4 13% 26 76.05 0.0
06 17:15 N 9 8.05 Fair with Haze CLR 27 -4 13% 26 76.05 0.0
06 16:55 W 11 G 22 16.09 Fair CLR 27 -4 13% 26 76.05 0.0
06 16:35 Vrbl 9 16.09 Fair CLR 27 -3 14% 26 76.05 0.0
06 16:15 Calm 16.09 Fair CLR 27 -3 14% 26 76.05 0.0
06 15:55 W 17 16.09 Fair CLR 27 -2 15% 26 76.07 0.0
06 15:35 Calm 16.09 Fair CLR 27 -2 15% 26 76.07 0.0
06 15:15 Vrbl 11 G 20 14.48 Fair CLR 27 -2 15% 26 76.1 0.0
06 14:55 N 13 16.09 Fair CLR 27 -2 15% 26 76.1 0.0
06 14:35 Vrbl 7 16.09 Fair CLR 26 -1 17% 25 76.12 0.0
06 14:15 W 17 3.22 Fair with Haze CLR 26 0 18% 25 76.15 0.0
06 13:55 Vrbl 6 16.09 Fair CLR 26 0 18% 25 76.17 0.0
06 13:35 Vrbl 9 16.09 Fair CLR 26 -1 17% 25 76.17 0.0
06 13:10 Calm 16.09 Fair CLR 25 -2 17% 25 76.2 0.0
06 12:55 N 19 12.87 Unknown Precip CLR 25 -1 18% 25 76.2 0.0
06 12:35 Vrbl 7 G 20 8.05 Fair with Haze CLR 25 0 19% 25 76.23 0.0
06 12:15 N 13 16.09 Fair CLR 24 0 21% 25 76.25 0.0
06 11:55 Vrbl 7 G 20 16.09 Fair CLR 24 1 22% 25 76.25 0.0
06 11:35 Calm 16.09 Fair CLR 23 0 22% 76.28 0.0
06 11:15 Vrbl 9 16.09 Fair CLR 23 1 23% 76.3 0.0
06 10:55 W 9 16.09 Fair CLR 22 2 27% 76.3 0.0
06 10:35 Vrbl 7 16.09 Fair CLR 22 3 29% 76.3 0.0
06 10:15 N 13 14.48 Fair CLR 21 3 31% 76.3 0.0
06 09:55 N 13 16.09 Fair CLR 21 3 31% 76.3 0.0
06 09:35 Calm 16.09 Fair CLR 20 3 33% 76.3 0.0
06 09:15 Calm 16.09 Fair CLR 19 5 40% 76.3 0.0
06 08:55 N 9 16.09 Fair CLR 18 5 43% 76.3 0.0
06 08:35 Calm 16.09 Fair CLR 17 5 45% 76.3 0.0
06 08:15 Calm 16.09 Fair CLR 17 7 52% 76.3 0.0
06 07:55 Calm 16.09 Fair CLR 15 8 63% 76.28 0.0
06 07:35 S 6 16.09 Fair CLR 14 8 67% 76.28 0.0
06 06:55 Calm 16.09 Fair CLR 13 8 72% 76.28 0.0
06 06:35 Calm 16.09 Fair CLR 12 8 77% 76.25 0.0
06 06:15 Calm 16.09 Fair CLR 10 8 88% 76.25 0.0
06 05:55 Calm 16.09 Fair CLR 9 7 87% 76.23 0.0
06 05:35 Calm 16.09 Fair CLR 11 8 82% 76.23 0.0
06 05:15 Calm 16.09 Fair CLR 12 8 77% 76.2 0.0
06 04:55 Vrbl 6 16.09 A Few Clouds FEW065 12 8 77% 76.2 0.0
06 04:35 SE 9 16.09 Partly Cloudy SCT065 12 8 77% 76.17 0.0
06 04:15 SE 7 16.09 Partly Cloudy SCT060 13 8 72% 76.17 0.0
06 03:55 E 9 16.09 Partly Cloudy SCT065 12 7 72% 76.17 0.0
06 03:30 E 9 16.09 Partly Cloudy FEW060 SCT070 13 7 67% 76.15 0.0
06 03:15 E 7 16.09 A Few Clouds FEW038 FEW055 13 7 67% 76.15 0.0
06 02:55 Calm 16.09 Fair CLR 13 6 63% 76.12 0.0
06 02:35 Calm 16.09 A Few Clouds FEW060 FEW070 13 7 67% 76.12 0.0
06 02:15 SE 6 16.09 A Few Clouds FEW060 FEW070 14 6 59% 76.12 0.0
06 01:55 SE 7 16.09 A Few Clouds FEW055 14 7 63% 76.12 0.0
06 01:35 E 9 16.09 Partly Cloudy SCT055 14 7 63% 76.12 0.0
06 01:15 SW 7 16.09 Partly Cloudy FEW045 SCT050 13 5 59% 76.12 0.0
06 00:55 SW 9 16.09 Mostly Cloudy FEW040 BKN049 13 5 59% 76.12 0.0
06 00:35 W 9 16.09 Mostly Cloudy SCT043 BKN050 BKN075 14 4 51% 76.12 0.0
06 00:15 W 9 16.09 Mostly Cloudy FEW042 SCT047 BKN055 15 3 45% 76.12 0.0
05 23:55 W 7 16.09 Mostly Cloudy FEW029 SCT040 BKN060 15 3 45% 76.12 0.0
05 23:35 SW 6 16.09 Mostly Cloudy FEW029 SCT035 BKN045 15 3 45% 76.12 0.0
05 23:15 W 9 16.09 Mostly Cloudy FEW033 SCT044 BKN055 15 3 45% 76.12 0.0
05 22:55 W 7 16.09 Mostly Cloudy FEW031 SCT048 BKN060 17 3 39% 76.12 0.0
05 22:35 W 9 16.09 Mostly Cloudy FEW037 FEW060 BKN075 17 3 39% 76.1 0.0
05 22:15 W 7 16.09 Mostly Cloudy FEW045 SCT060 BKN070 17 3 39% 76.1 0.0
05 21:55 W 7 16.09 Overcast SCT044 SCT055 OVC090 18 3 37% 76.07 0.0
05 21:35 NW 11 16.09 Overcast SCT070 BKN075 OVC090 19 2 32% 76.05 0.0
05 21:15 NW 11 16.09 Overcast BKN070 OVC080 20 2 30% 76.05 0.0
05 20:55 NW 9 16.09 Overcast BKN070 OVC085 20 2 30% 76.02 0.0
05 20:35 W 13 16.09 Overcast BKN070 BKN085 OVC100 19 3 35% 76 0.0
05 20:15 NW 9 G 19 16.09 Mostly Cloudy FEW070 FEW085 BKN110 20 2 30% 75.97 0.0
05 19:55 NW 11 16.09 Mostly Cloudy FEW041 SCT090 BKN110 21 2 29% 75.92 0.0
05 19:35 NW 11 16.09 Mostly Cloudy SCT090 BKN110 21 2 29% 75.9 0.0
05 19:15 Vrbl 6 16.09 Mostly Cloudy BKN085 BKN110 22 3 29% 75.87 0.0
05 18:55 W 7 16.09 Mostly Cloudy BKN085 BKN120 22 3 29% 75.84 0.0
05 18:35 W 15 16.09 Partly Cloudy SCT085 22 3 29% 75.84 0.0
05 18:15 SW 19 16.09 Partly Cloudy SCT085 23 3 27% 75.82 0.0
05 17:55 SW 15 G 26 16.09 Fair CLR 23 3 27% 75.82 0.0
05 17:35 SW 26 G 39 16.09 Fair CLR 24 2 24% 25 75.79 0.0
05 17:15 SW 20 G 37 16.09 Partly Cloudy SCT085 24 2 24% 25 75.79 0.0
05 16:55 SW 30 16.09 Partly Cloudy SCT085 SCT100 25 2 22% 25 75.79 0.0
05 16:35 W 15 G 41 16.09 A Few Clouds FEW090 24 3 25% 25 75.77 0.0
05 16:15 SW 22 G 41 14.48 A Few Clouds FEW080 FEW100 25 3 24% 25 75.77 0.0
05 15:50 W 20 G 41 16.09 Mostly Cloudy BKN075 BKN095 25 4 26% 25 75.77 0.0
05 15:35 SW 15 16.09 Overcast BKN075 OVC095 24 5 29% 25 75.79 0.0
05 15:15 SW 26 16.09 Mostly Cloudy SCT075 BKN090 24 4 27% 25 75.82 0.0
05 14:55 S 19 G 35 16.09 Mostly Cloudy SCT080 BKN095 25 4 26% 25 75.82 0.0
05 14:35 SW 24 G 43 16.09 Partly Cloudy SCT080 24 3 25% 25 75.84 0.0
05 14:15 SW 31 G 41 16.09 Partly Cloudy SCT080 24 4 27% 25 75.87 0.0
05 13:55 SW 31 16.09 A Few Clouds FEW080 FEW090 24 5 29% 25 75.87 0.0
05 13:35 SW 24 G 41 16.09 Partly Cloudy SCT075 SCT090 24 5 29% 25 75.87 0.0
05 13:15 SW 24 G 43 16.09 NULL NULL 24 4 27% 25 75.9 0.0
05 12:55 SW 26 G 41 16.09 NULL NULL 23 6 33% 75.9 0.0
05 12:35 SW 13 16.09 NULL NULL 22 8 41% 75.92 0.0
05 12:15 SW 17 G 28 16.09 NULL NULL 22 8 41% 75.95 0.0
05 11:55 SW 7 G 22 16.09 NULL NULL 22 9 44% 75.95 0.0
05 11:35 Calm 16.09 NULL NULL 21 10 50% 75.97 0.0
05 11:15 SW 13 G 22 16.09 NULL NULL 21 10 50% 76 0.0
05 10:55 Vrbl 9 16.09 NULL NULL 20 11 56% 76 0.0
05 10:35 Vrbl 7 G 20 16.09 NULL NULL 20 11 56% 76 0.0
05 10:15 SW 11 16.09 NULL NULL 19 11 60% 76.02 0.0
05 09:55 Vrbl 9 16.09 NULL NULL 19 12 64% 76 0.0
05 09:35 Calm 16.09 NULL NULL 18 12 68% 76.02 0.0
05 09:15 Calm 16.09 NULL NULL 18 13 73% 76.02 0.0
05 08:55 Calm 16.09 NULL NULL 17 14 83% 76 0.0
05 08:35 Calm 16.09 Overcast SCT042 SCT050 OVC065 17 14 83% 76 0.0
05 08:15 SW 6 16.09 Overcast OVC042 17 15 88% 76 0.0
05 07:55 Calm 16.09 Overcast FEW008 BKN044 OVC065 17 15 88% 76 0.0
05 07:35 Calm 16.09 Overcast BKN047 OVC065 16 15 94% 75.97 0.0
05 07:15 Calm 16.09 Overcast BKN048 OVC055 16 16 100% 75.97 0.0
05 06:55 Calm 16.09 Overcast OVC050 16 15 94% 75.97 0.0
05 06:35 Calm 16.09 Mostly Cloudy SCT050 BKN060 16 15 94% 75.97 0.0
05 06:15 Calm 16.09 Overcast SCT050 OVC065 16 15 94% 75.95 0.0
05 05:55 S 6 16.09 Overcast SCT050 OVC060 16 15 94% 75.92 0.0
05 05:35 SE 7 16.09 Overcast FEW050 OVC060 16 15 94% 75.9 0.0
05 05:15 E 7 16.09 Overcast OVC060 16 15 94% 75.9 0.0
05 04:55 SE 7 16.09 Overcast BKN055 OVC065 16 15 94% 75.9 0.0
05 04:35 SE 6 16.09 Unknown Precip OVC060 16 15 94% 75.9 0.0
05 04:15 E 13 16.09 Overcast FEW031 OVC060 16 15 94% 75.9 0.0
05 03:55 SE 7 16.09 Overcast OVC060 16 15 94% 75.92 0.0
05 03:35 Calm 16.09 Overcast FEW032 OVC060 16 15 94% 75.92 0.0
05 03:15 Calm 16.09 Overcast SCT033 SCT046 OVC060 15 15 100% 75.92 0.0
05 02:55 W 9 6.44 Light Rain Fog/Mist FEW007 SCT034 BKN048 16 15 94% 76 0.0 0.1
05 02:35 SE 15 11.27 Light Rain FEW036 SCT048 OVC060 16 15 94% 75.97 0.0
05 02:15 SE 17 16.09 Light Rain FEW040 SCT047 BKN060 16 15 94% 76 0.0
05 01:55 SE 19 16.09 Light Rain FEW047 SCT060 OVC075 16 15 94% 75.97 0.0 0.03
05 01:35 SE 22 14.48 Light Rain FEW041 SCT060 OVC075 16 15 94% 76 0.0
05 01:15 SE 20 16.09 Light Rain NULL 16 15 94% 76.05 0.0
05 00:55 SE 20 8.05 Light Rain Fog/Mist NULL 16 15 94% 76.05 0.0 0.1
05 00:35 SE 17 11.27 Light Rain NULL 16 14 88% 76.1 0.0
05 00:15 SE 13 14.48 Light Rain SCT060 OVC070 15 14 94% 76.1 0.0
04 23:55 SE 19 16.09 Light Rain FEW050 SCT060 OVC075 15 14 94% 76.07 0.0 0.05
04 23:35 SE 13 11.27 Light Rain NULL 16 14 88% 76.12 0.0
04 23:15 SE 7 14.48 Light Rain NULL 15 13 88% 76.15 0.0
04 22:55 SE 11 14.48 Light Rain NULL 15 14 94% 76.15 0.0 0.03
04 22:35 SE 11 14.48 Light Rain FEW043 SCT050 BKN060 16 13 83% 76.15 0.0
04 22:15 SE 11 16.09 Light Rain FEW050 BKN060 OVC075 16 12 77% 76.12 0.0
04 21:55 SE 9 16.09 Overcast SCT065 BKN075 OVC100 16 12 77% 76.12 0.0 0.03
04 21:15 S 7 16.09 Light Rain FEW033 SCT050 BKN060 16 11 72% 76.12 0.0
04 20:50 SE 13 16.09 Light Rain FEW049 BKN065 OVC075 17 10 64% 76.12 0.0
04 20:35 SE 13 16.09 Overcast FEW039 FEW050 OVC070 17 10 64% 76.07 0.0
04 20:15 SE 15 16.09 Light Rain FEW040 SCT055 BKN070 17 10 64% 76.07 0.0
04 19:55 SE 7 16.09 Light Rain FEW060 BKN070 OVC110 17 10 64% 76.1 0.0
04 19:35 SE 13 G 22 16.09 Overcast BKN065 OVC075 18 10 60% 76.05 0.0
04 19:15 SE 19 16.09 Mostly Cloudy FEW065 SCT075 BKN095 18 9 56% 76.02 0.0
04 18:55 SE 15 16.09 Partly Cloudy FEW060 SCT100 18 10 60% 76.02 0.0
04 18:35 E 19 14.48 Light Rain BKN065 BKN090 19 11 60% 76.05 0.0
04 18:15 S 20 G 33 16.09 Light Rain FEW050 BKN070 OVC095 21 6 38% 76.07 0.0
04 17:55 S 17 G 28 16.09 Overcast OVC095 22 4 31% 76 0.0
04 17:35 S 17 G 28 16.09 Overcast OVC085 22 6 36% 76 0.0
04 17:15 S 11 16.09 Overcast OVC085 22 6 36% 76.02 0.0
04 16:55 S 15 16.09 Partly Cloudy SCT090 23 6 33% 76 0.0
04 16:35 S 13 16.09 Fair CLR 23 6 33% 75.97 0.0
04 16:10 S 9 14.48 Light Rain CLR 23 8 38% 75.97 0.0
04 15:55 S 19 G 33 16.09 Light Rain CLR 24 6 31% 25 76 0.0
04 15:35 SW 15 G 31 16.09 A Few Clouds FEW060 25 3 24% 25 76.02 0.0
04 15:15 SW 26 11.27 Fair CLR 26 2 21% 26 76.02 0.0
Date Time (mst) Wind (kph) Vis. (km) Weather Sky Cond. Air Dwpt Max. Min. Relative Humidity Wind Chill (°C) Heat Index (°C) altimeter (cm) sea level (mb) 1 hr 3 hr 6 hr
6 hour
Temperature (ºC) Pressure Precipitation (cm)